sensor_id;sensor_type;location;lat;lon;timestamp;P1;durP1;ratioP1;P2;durP2;ratioP2
20846;SDS011;10584;50.854;12.902;2023-04-15T00:03:20;12.13;;;6.97;;
20846;SDS011;10584;50.854;12.902;2023-04-15T00:08:42;9.67;;;5.90;;
20846;SDS011;10584;50.854;12.902;2023-04-15T00:14:04;12.37;;;6.07;;
20846;SDS011;10584;50.854;12.902;2023-04-15T00:19:26;9.17;;;5.23;;
20846;SDS011;10584;50.854;12.902;2023-04-15T00:24:48;9.73;;;5.57;;
20846;SDS011;10584;50.854;12.902;2023-04-15T00:30:09;9.03;;;5.23;;
20846;SDS011;10584;50.854;12.902;2023-04-15T00:35:31;9.30;;;5.20;;
20846;SDS011;10584;50.854;12.902;2023-04-15T00:40:53;8.17;;;4.70;;
20846;SDS011;10584;50.854;12.902;2023-04-15T00:46:15;8.43;;;4.77;;
20846;SDS011;10584;50.854;12.902;2023-04-15T00:51:39;7.97;;;4.97;;
20846;SDS011;10584;50.854;12.902;2023-04-15T00:57:01;8.53;;;4.53;;
20846;SDS011;10584;50.854;12.902;2023-04-15T01:02:24;11.03;;;5.77;;
20846;SDS011;10584;50.854;12.902;2023-04-15T01:07:47;9.30;;;5.00;;
20846;SDS011;10584;50.854;12.902;2023-04-15T01:13:08;10.53;;;5.20;;
20846;SDS011;10584;50.854;12.902;2023-04-15T01:18:32;7.73;;;4.17;;
20846;SDS011;10584;50.854;12.902;2023-04-15T01:23:54;10.93;;;5.00;;
20846;SDS011;10584;50.854;12.902;2023-04-15T01:29:17;6.90;;;4.00;;
20846;SDS011;10584;50.854;12.902;2023-04-15T01:34:38;6.70;;;4.00;;
20846;SDS011;10584;50.854;12.902;2023-04-15T01:40:00;8.17;;;4.27;;
20846;SDS011;10584;50.854;12.902;2023-04-15T01:45:22;7.23;;;3.50;;
20846;SDS011;10584;50.854;12.902;2023-04-15T01:50:44;7.50;;;3.83;;
20846;SDS011;10584;50.854;12.902;2023-04-15T01:56:06;7.77;;;4.07;;
20846;SDS011;10584;50.854;12.902;2023-04-15T02:01:28;7.20;;;4.07;;
20846;SDS011;10584;50.854;12.902;2023-04-15T02:06:51;7.47;;;3.80;;
20846;SDS011;10584;50.854;12.902;2023-04-15T02:12:14;6.47;;;3.47;;
20846;SDS011;10584;50.854;12.902;2023-04-15T02:17:35;10.10;;;4.30;;
20846;SDS011;10584;50.854;12.902;2023-04-15T02:22:57;9.23;;;4.50;;
20846;SDS011;10584;50.854;12.902;2023-04-15T02:28:18;7.93;;;4.57;;
20846;SDS011;10584;50.854;12.902;2023-04-15T02:33:41;8.57;;;5.17;;
20846;SDS011;10584;50.854;12.902;2023-04-15T02:39:02;7.77;;;5.03;;
20846;SDS011;10584;50.854;12.902;2023-04-15T02:44:24;10.97;;;6.17;;
20846;SDS011;10584;50.854;12.902;2023-04-15T02:49:50;10.03;;;6.17;;
20846;SDS011;10584;50.854;12.902;2023-04-15T02:55:12;10.37;;;6.17;;
20846;SDS011;10584;50.854;12.902;2023-04-15T03:00:37;8.13;;;5.20;;
20846;SDS011;10584;50.854;12.902;2023-04-15T03:05:59;10.27;;;5.47;;
20846;SDS011;10584;50.854;12.902;2023-04-15T03:11:21;7.80;;;5.07;;
20846;SDS011;10584;50.854;12.902;2023-04-15T03:16:42;8.17;;;5.13;;
20846;SDS011;10584;50.854;12.902;2023-04-15T03:22:06;7.37;;;4.77;;
20846;SDS011;10584;50.854;12.902;2023-04-15T03:27:27;8.27;;;5.20;;
20846;SDS011;10584;50.854;12.902;2023-04-15T03:32:52;8.13;;;4.90;;
20846;SDS011;10584;50.854;12.902;2023-04-15T03:38:13;8.60;;;4.70;;
20846;SDS011;10584;50.854;12.902;2023-04-15T03:43:34;7.03;;;4.60;;
20846;SDS011;10584;50.854;12.902;2023-04-15T03:48:57;6.87;;;4.17;;
20846;SDS011;10584;50.854;12.902;2023-04-15T03:54:20;6.63;;;4.37;;
20846;SDS011;10584;50.854;12.902;2023-04-15T03:59:41;6.57;;;3.70;;
20846;SDS011;10584;50.854;12.902;2023-04-15T04:05:03;5.63;;;3.77;;
20846;SDS011;10584;50.854;12.902;2023-04-15T04:10:25;6.20;;;3.87;;
20846;SDS011;10584;50.854;12.902;2023-04-15T04:15:46;6.40;;;4.10;;
20846;SDS011;10584;50.854;12.902;2023-04-15T04:21:07;5.83;;;3.70;;
20846;SDS011;10584;50.854;12.902;2023-04-15T04:26:29;7.97;;;4.40;;
20846;SDS011;10584;50.854;12.902;2023-04-15T04:31:50;6.37;;;4.17;;
20846;SDS011;10584;50.854;12.902;2023-04-15T04:37:12;7.90;;;4.67;;
20846;SDS011;10584;50.854;12.902;2023-04-15T04:42:33;7.70;;;3.83;;
20846;SDS011;10584;50.854;12.902;2023-04-15T04:47:58;8.60;;;4.27;;
20846;SDS011;10584;50.854;12.902;2023-04-15T04:53:20;8.10;;;4.53;;
20846;SDS011;10584;50.854;12.902;2023-04-15T04:58:41;9.00;;;4.70;;
20846;SDS011;10584;50.854;12.902;2023-04-15T05:04:03;10.00;;;5.33;;
20846;SDS011;10584;50.854;12.902;2023-04-15T05:09:26;10.17;;;5.30;;
20846;SDS011;10584;50.854;12.902;2023-04-15T05:14:47;10.57;;;5.47;;
20846;SDS011;10584;50.854;12.902;2023-04-15T05:20:09;9.00;;;4.60;;
20846;SDS011;10584;50.854;12.902;2023-04-15T05:25:31;6.57;;;3.77;;
20846;SDS011;10584;50.854;12.902;2023-04-15T05:30:53;7.83;;;3.90;;
20846;SDS011;10584;50.854;12.902;2023-04-15T05:36:14;6.77;;;3.57;;
20846;SDS011;10584;50.854;12.902;2023-04-15T05:41:36;5.60;;;3.27;;
20846;SDS011;10584;50.854;12.902;2023-04-15T05:46:58;6.57;;;3.00;;
20846;SDS011;10584;50.854;12.902;2023-04-15T05:52:20;4.13;;;2.40;;
20846;SDS011;10584;50.854;12.902;2023-04-15T05:57:41;3.90;;;2.10;;
20846;SDS011;10584;50.854;12.902;2023-04-15T06:03:03;4.73;;;2.30;;
20846;SDS011;10584;50.854;12.902;2023-04-15T06:08:25;4.90;;;2.53;;
20846;SDS011;10584;50.854;12.902;2023-04-15T06:13:47;4.00;;;2.13;;
20846;SDS011;10584;50.854;12.902;2023-04-15T06:19:08;4.63;;;2.40;;
20846;SDS011;10584;50.854;12.902;2023-04-15T06:24:31;3.73;;;2.17;;
20846;SDS011;10584;50.854;12.902;2023-04-15T06:29:53;3.47;;;2.07;;
20846;SDS011;10584;50.854;12.902;2023-04-15T06:35:15;3.47;;;1.80;;
20846;SDS011;10584;50.854;12.902;2023-04-15T06:40:40;3.37;;;2.03;;
20846;SDS011;10584;50.854;12.902;2023-04-15T06:46:01;2.43;;;1.77;;
20846;SDS011;10584;50.854;12.902;2023-04-15T06:51:23;3.70;;;1.60;;
20846;SDS011;10584;50.854;12.902;2023-04-15T06:56:45;3.10;;;1.50;;
20846;SDS011;10584;50.854;12.902;2023-04-15T07:02:07;3.83;;;2.07;;
20846;SDS011;10584;50.854;12.902;2023-04-15T07:07:31;6.40;;;2.70;;
20846;SDS011;10584;50.854;12.902;2023-04-15T07:12:53;6.27;;;2.87;;
20846;SDS011;10584;50.854;12.902;2023-04-15T07:18:15;7.47;;;4.30;;
20846;SDS011;10584;50.854;12.902;2023-04-15T07:23:36;4.13;;;2.40;;
20846;SDS011;10584;50.854;12.902;2023-04-15T07:28:57;3.73;;;1.83;;
20846;SDS011;10584;50.854;12.902;2023-04-15T07:34:19;2.77;;;1.80;;
20846;SDS011;10584;50.854;12.902;2023-04-15T07:39:41;2.70;;;1.60;;
20846;SDS011;10584;50.854;12.902;2023-04-15T07:45:02;3.33;;;1.73;;
20846;SDS011;10584;50.854;12.902;2023-04-15T07:50:24;2.73;;;1.77;;
20846;SDS011;10584;50.854;12.902;2023-04-15T07:55:46;1.80;;;1.50;;
20846;SDS011;10584;50.854;12.902;2023-04-15T08:01:08;3.47;;;1.80;;
20846;SDS011;10584;50.854;12.902;2023-04-15T08:06:30;2.27;;;1.77;;
20846;SDS011;10584;50.854;12.902;2023-04-15T08:11:52;3.43;;;2.03;;
20846;SDS011;10584;50.854;12.902;2023-04-15T08:17:14;3.90;;;2.20;;
20846;SDS011;10584;50.854;12.902;2023-04-15T08:22:35;3.93;;;2.77;;
20846;SDS011;10584;50.854;12.902;2023-04-15T08:27:57;2.80;;;2.20;;
20846;SDS011;10584;50.854;12.902;2023-04-15T08:33:18;2.93;;;1.80;;
20846;SDS011;10584;50.854;12.902;2023-04-15T08:38:40;3.67;;;2.20;;
20846;SDS011;10584;50.854;12.902;2023-04-15T08:44:05;3.70;;;2.20;;
20846;SDS011;10584;50.854;12.902;2023-04-15T08:49:26;5.00;;;3.00;;
20846;SDS011;10584;50.854;12.902;2023-04-15T08:54:49;5.73;;;2.87;;
20846;SDS011;10584;50.854;12.902;2023-04-15T09:00:11;3.63;;;2.57;;
20846;SDS011;10584;50.854;12.902;2023-04-15T09:05:34;6.30;;;3.67;;
20846;SDS011;10584;50.854;12.902;2023-04-15T09:10:56;5.57;;;3.20;;
20846;SDS011;10584;50.854;12.902;2023-04-15T09:16:17;5.00;;;3.10;;
20846;SDS011;10584;50.854;12.902;2023-04-15T09:21:39;4.60;;;3.10;;
20846;SDS011;10584;50.854;12.902;2023-04-15T09:27:00;6.80;;;3.83;;
20846;SDS011;10584;50.854;12.902;2023-04-15T09:32:22;6.23;;;3.70;;
20846;SDS011;10584;50.854;12.902;2023-04-15T09:37:44;21.00;;;8.90;;
20846;SDS011;10584;50.854;12.902;2023-04-15T09:43:06;6.13;;;3.93;;
20846;SDS011;10584;50.854;12.902;2023-04-15T09:48:28;5.63;;;3.27;;
20846;SDS011;10584;50.854;12.902;2023-04-15T09:53:51;4.13;;;2.70;;
20846;SDS011;10584;50.854;12.902;2023-04-15T09:59:16;4.93;;;3.23;;
20846;SDS011;10584;50.854;12.902;2023-04-15T10:04:40;8.93;;;3.97;;
20846;SDS011;10584;50.854;12.902;2023-04-15T10:10:01;6.60;;;3.70;;
20846;SDS011;10584;50.854;12.902;2023-04-15T10:15:24;7.07;;;3.53;;
20846;SDS011;10584;50.854;12.902;2023-04-15T10:20:47;5.93;;;3.90;;
20846;SDS011;10584;50.854;12.902;2023-04-15T10:26:10;6.10;;;3.67;;
20846;SDS011;10584;50.854;12.902;2023-04-15T10:31:34;5.13;;;3.17;;
20846;SDS011;10584;50.854;12.902;2023-04-15T10:37:00;5.17;;;3.30;;
20846;SDS011;10584;50.854;12.902;2023-04-15T10:42:23;5.60;;;3.40;;
20846;SDS011;10584;50.854;12.902;2023-04-15T10:47:56;6.23;;;3.93;;
20846;SDS011;10584;50.854;12.902;2023-04-15T10:53:27;6.07;;;3.10;;
20846;SDS011;10584;50.854;12.902;2023-04-15T10:58:50;5.70;;;3.73;;
20846;SDS011;10584;50.854;12.902;2023-04-15T11:04:11;7.07;;;4.43;;
20846;SDS011;10584;50.854;12.902;2023-04-15T11:09:33;7.50;;;3.93;;
20846;SDS011;10584;50.854;12.902;2023-04-15T11:14:54;7.43;;;4.10;;
20846;SDS011;10584;50.854;12.902;2023-04-15T11:20:17;7.13;;;4.60;;
20846;SDS011;10584;50.854;12.902;2023-04-15T11:25:38;6.70;;;4.20;;
20846;SDS011;10584;50.854;12.902;2023-04-15T11:31:10;5.83;;;3.97;;
20846;SDS011;10584;50.854;12.902;2023-04-15T11:36:39;6.80;;;4.30;;
20846;SDS011;10584;50.854;12.902;2023-04-15T11:42:11;6.87;;;4.00;;
20846;SDS011;10584;50.854;12.902;2023-04-15T11:47:37;6.20;;;4.40;;
20846;SDS011;10584;50.854;12.902;2023-04-15T11:53:00;7.53;;;4.43;;
20846;SDS011;10584;50.854;12.902;2023-04-15T11:58:28;6.53;;;4.23;;
20846;SDS011;10584;50.854;12.902;2023-04-15T12:03:49;6.00;;;4.30;;
20846;SDS011;10584;50.854;12.902;2023-04-15T12:09:14;7.83;;;4.90;;
20846;SDS011;10584;50.854;12.902;2023-04-15T12:14:36;7.30;;;4.33;;
20846;SDS011;10584;50.854;12.902;2023-04-15T12:20:01;9.10;;;4.60;;
20846;SDS011;10584;50.854;12.902;2023-04-15T12:25:32;6.77;;;4.23;;
20846;SDS011;10584;50.854;12.902;2023-04-15T12:30:54;6.20;;;4.00;;
20846;SDS011;10584;50.854;12.902;2023-04-15T12:36:16;9.03;;;5.30;;
20846;SDS011;10584;50.854;12.902;2023-04-15T12:41:37;6.60;;;4.57;;
20846;SDS011;10584;50.854;12.902;2023-04-15T12:46:59;8.10;;;4.50;;
20846;SDS011;10584;50.854;12.902;2023-04-15T12:52:21;7.87;;;4.73;;
20846;SDS011;10584;50.854;12.902;2023-04-15T12:57:43;7.97;;;5.37;;
20846;SDS011;10584;50.854;12.902;2023-04-15T13:03:05;8.10;;;5.37;;
20846;SDS011;10584;50.854;12.902;2023-04-15T13:08:26;7.33;;;4.97;;
20846;SDS011;10584;50.854;12.902;2023-04-15T13:13:48;8.90;;;5.53;;
20846;SDS011;10584;50.854;12.902;2023-04-15T13:19:11;9.17;;;5.80;;
20846;SDS011;10584;50.854;12.902;2023-04-15T13:24:33;11.37;;;6.83;;
20846;SDS011;10584;50.854;12.902;2023-04-15T13:29:54;10.57;;;6.37;;
20846;SDS011;10584;50.854;12.902;2023-04-15T13:35:16;11.63;;;6.90;;
20846;SDS011;10584;50.854;12.902;2023-04-15T13:40:38;11.67;;;6.80;;
20846;SDS011;10584;50.854;12.902;2023-04-15T13:46:00;10.63;;;6.87;;
20846;SDS011;10584;50.854;12.902;2023-04-15T13:51:21;12.20;;;7.00;;
20846;SDS011;10584;50.854;12.902;2023-04-15T13:56:43;12.60;;;7.30;;
20846;SDS011;10584;50.854;12.902;2023-04-15T14:02:05;10.30;;;6.80;;
20846;SDS011;10584;50.854;12.902;2023-04-15T14:07:29;11.13;;;7.07;;
20846;SDS011;10584;50.854;12.902;2023-04-15T14:12:50;11.40;;;6.67;;
20846;SDS011;10584;50.854;12.902;2023-04-15T14:18:12;11.50;;;7.37;;
20846;SDS011;10584;50.854;12.902;2023-04-15T14:23:33;11.50;;;7.17;;
20846;SDS011;10584;50.854;12.902;2023-04-15T14:28:55;12.93;;;7.27;;
20846;SDS011;10584;50.854;12.902;2023-04-15T14:34:16;12.67;;;7.13;;
20846;SDS011;10584;50.854;12.902;2023-04-15T14:39:38;13.07;;;7.70;;
20846;SDS011;10584;50.854;12.902;2023-04-15T14:44:59;14.13;;;8.63;;
20846;SDS011;10584;50.854;12.902;2023-04-15T14:50:21;10.67;;;7.13;;
20846;SDS011;10584;50.854;12.902;2023-04-15T14:55:42;13.47;;;8.10;;
20846;SDS011;10584;50.854;12.902;2023-04-15T15:01:04;14.83;;;8.63;;
20846;SDS011;10584;50.854;12.902;2023-04-15T15:06:26;13.97;;;8.00;;
20846;SDS011;10584;50.854;12.902;2023-04-15T15:11:48;14.23;;;8.30;;
20846;SDS011;10584;50.854;12.902;2023-04-15T15:17:10;13.97;;;8.27;;
20846;SDS011;10584;50.854;12.902;2023-04-15T15:22:31;12.93;;;7.70;;
20846;SDS011;10584;50.854;12.902;2023-04-15T15:27:53;13.43;;;7.60;;
20846;SDS011;10584;50.854;12.902;2023-04-15T15:33:15;12.90;;;7.87;;
20846;SDS011;10584;50.854;12.902;2023-04-15T15:38:37;12.90;;;7.40;;
20846;SDS011;10584;50.854;12.902;2023-04-15T15:44:00;14.13;;;7.90;;
20846;SDS011;10584;50.854;12.902;2023-04-15T15:49:22;13.90;;;8.40;;
20846;SDS011;10584;50.854;12.902;2023-04-15T15:54:45;14.97;;;8.60;;
20846;SDS011;10584;50.854;12.902;2023-04-15T16:00:07;14.30;;;8.40;;
20846;SDS011;10584;50.854;12.902;2023-04-15T16:05:32;15.13;;;8.53;;
20846;SDS011;10584;50.854;12.902;2023-04-15T16:10:54;11.60;;;7.73;;
20846;SDS011;10584;50.854;12.902;2023-04-15T16:16:16;13.03;;;7.80;;
20846;SDS011;10584;50.854;12.902;2023-04-15T16:21:38;18.63;;;10.90;;
20846;SDS011;10584;50.854;12.902;2023-04-15T16:26:59;17.03;;;9.73;;
20846;SDS011;10584;50.854;12.902;2023-04-15T16:32:21;15.47;;;9.00;;
20846;SDS011;10584;50.854;12.902;2023-04-15T16:37:42;15.27;;;8.37;;
20846;SDS011;10584;50.854;12.902;2023-04-15T16:43:03;12.77;;;7.80;;
20846;SDS011;10584;50.854;12.902;2023-04-15T16:48:30;13.97;;;8.30;;
20846;SDS011;10584;50.854;12.902;2023-04-15T16:53:51;14.40;;;8.70;;
20846;SDS011;10584;50.854;12.902;2023-04-15T16:59:13;15.67;;;9.20;;
20846;SDS011;10584;50.854;12.902;2023-04-15T17:04:34;15.97;;;9.90;;
20846;SDS011;10584;50.854;12.902;2023-04-15T17:09:56;19.10;;;10.63;;
20846;SDS011;10584;50.854;12.902;2023-04-15T17:15:18;18.13;;;10.67;;
20846;SDS011;10584;50.854;12.902;2023-04-15T17:20:40;17.63;;;10.20;;
20846;SDS011;10584;50.854;12.902;2023-04-15T17:26:01;19.40;;;10.73;;
20846;SDS011;10584;50.854;12.902;2023-04-15T17:31:23;18.83;;;10.73;;
20846;SDS011;10584;50.854;12.902;2023-04-15T17:36:44;16.67;;;9.77;;
20846;SDS011;10584;50.854;12.902;2023-04-15T17:42:09;15.63;;;9.80;;
20846;SDS011;10584;50.854;12.902;2023-04-15T17:47:30;18.17;;;11.07;;
20846;SDS011;10584;50.854;12.902;2023-04-15T17:52:55;33.33;;;16.60;;
20846;SDS011;10584;50.854;12.902;2023-04-15T17:58:18;65.33;;;27.23;;
20846;SDS011;10584;50.854;12.902;2023-04-15T18:03:39;43.30;;;21.83;;
20846;SDS011;10584;50.854;12.902;2023-04-15T18:09:01;56.13;;;23.37;;
20846;SDS011;10584;50.854;12.902;2023-04-15T18:14:23;38.93;;;19.80;;
20846;SDS011;10584;50.854;12.902;2023-04-15T18:19:54;31.63;;;16.77;;
20846;SDS011;10584;50.854;12.902;2023-04-15T18:25:15;40.17;;;20.97;;
20846;SDS011;10584;50.854;12.902;2023-04-15T18:30:37;39.93;;;19.33;;
20846;SDS011;10584;50.854;12.902;2023-04-15T18:35:59;34.47;;;18.23;;
20846;SDS011;10584;50.854;12.902;2023-04-15T18:41:21;32.13;;;17.70;;
20846;SDS011;10584;50.854;12.902;2023-04-15T18:46:44;28.47;;;15.73;;
20846;SDS011;10584;50.854;12.902;2023-04-15T18:52:10;30.80;;;15.63;;
20846;SDS011;10584;50.854;12.902;2023-04-15T18:57:31;28.20;;;14.97;;
20846;SDS011;10584;50.854;12.902;2023-04-15T19:02:54;29.90;;;14.80;;
20846;SDS011;10584;50.854;12.902;2023-04-15T19:08:16;24.87;;;14.27;;
20846;SDS011;10584;50.854;12.902;2023-04-15T19:13:38;27.10;;;14.90;;
20846;SDS011;10584;50.854;12.902;2023-04-15T19:18:59;26.10;;;14.23;;
20846;SDS011;10584;50.854;12.902;2023-04-15T19:24:21;26.80;;;14.07;;
20846;SDS011;10584;50.854;12.902;2023-04-15T19:29:42;27.70;;;15.20;;
20846;SDS011;10584;50.854;12.902;2023-04-15T19:35:05;26.50;;;14.83;;
20846;SDS011;10584;50.854;12.902;2023-04-15T19:40:30;27.77;;;15.37;;
20846;SDS011;10584;50.854;12.902;2023-04-15T19:45:52;30.53;;;16.07;;
20846;SDS011;10584;50.854;12.902;2023-04-15T19:51:14;28.50;;;15.37;;
20846;SDS011;10584;50.854;12.902;2023-04-15T19:56:35;28.73;;;15.63;;
20846;SDS011;10584;50.854;12.902;2023-04-15T20:01:57;31.90;;;16.30;;
20846;SDS011;10584;50.854;12.902;2023-04-15T20:07:18;30.63;;;15.47;;
20846;SDS011;10584;50.854;12.902;2023-04-15T20:12:40;33.63;;;16.57;;
20846;SDS011;10584;50.854;12.902;2023-04-15T20:18:12;34.77;;;17.03;;
20846;SDS011;10584;50.854;12.902;2023-04-15T20:23:33;30.17;;;16.07;;
20846;SDS011;10584;50.854;12.902;2023-04-15T20:28:57;29.77;;;16.87;;
20846;SDS011;10584;50.854;12.902;2023-04-15T20:34:20;31.67;;;16.70;;
20846;SDS011;10584;50.854;12.902;2023-04-15T20:39:41;34.20;;;16.73;;
20846;SDS011;10584;50.854;12.902;2023-04-15T20:45:02;34.87;;;17.10;;
20846;SDS011;10584;50.854;12.902;2023-04-15T20:50:26;35.40;;;18.20;;
20846;SDS011;10584;50.854;12.902;2023-04-15T20:55:47;37.33;;;19.50;;
20846;SDS011;10584;50.854;12.902;2023-04-15T21:01:09;38.73;;;19.10;;
20846;SDS011;10584;50.854;12.902;2023-04-15T21:06:32;39.67;;;20.23;;
20846;SDS011;10584;50.854;12.902;2023-04-15T21:11:54;39.37;;;19.90;;
20846;SDS011;10584;50.854;12.902;2023-04-15T21:17:20;44.33;;;21.13;;
20846;SDS011;10584;50.854;12.902;2023-04-15T21:22:42;40.03;;;20.07;;
20846;SDS011;10584;50.854;12.902;2023-04-15T21:28:03;41.03;;;20.87;;
20846;SDS011;10584;50.854;12.902;2023-04-15T21:33:25;43.80;;;21.20;;
20846;SDS011;10584;50.854;12.902;2023-04-15T21:38:46;47.33;;;21.70;;
20846;SDS011;10584;50.854;12.902;2023-04-15T21:44:09;44.87;;;21.90;;
20846;SDS011;10584;50.854;12.902;2023-04-15T21:49:33;45.23;;;22.00;;
20846;SDS011;10584;50.854;12.902;2023-04-15T21:54:55;46.50;;;22.17;;
20846;SDS011;10584;50.854;12.902;2023-04-15T22:00:16;43.53;;;21.67;;
20846;SDS011;10584;50.854;12.902;2023-04-15T22:05:37;43.10;;;22.07;;
20846;SDS011;10584;50.854;12.902;2023-04-15T22:10:59;45.43;;;21.60;;
20846;SDS011;10584;50.854;12.902;2023-04-15T22:16:20;45.33;;;21.67;;
20846;SDS011;10584;50.854;12.902;2023-04-15T22:21:42;43.47;;;22.33;;
20846;SDS011;10584;50.854;12.902;2023-04-15T22:27:04;41.67;;;21.50;;
20846;SDS011;10584;50.854;12.902;2023-04-15T22:32:25;45.47;;;22.13;;
20846;SDS011;10584;50.854;12.902;2023-04-15T22:37:47;45.07;;;22.53;;
20846;SDS011;10584;50.854;12.902;2023-04-15T22:43:08;45.33;;;22.30;;
20846;SDS011;10584;50.854;12.902;2023-04-15T22:48:30;47.93;;;23.43;;
20846;SDS011;10584;50.854;12.902;2023-04-15T22:53:51;46.07;;;22.10;;
20846;SDS011;10584;50.854;12.902;2023-04-15T22:59:13;48.57;;;23.30;;
20846;SDS011;10584;50.854;12.902;2023-04-15T23:04:34;53.00;;;23.67;;
20846;SDS011;10584;50.854;12.902;2023-04-15T23:09:56;48.60;;;23.63;;
20846;SDS011;10584;50.854;12.902;2023-04-15T23:15:19;49.10;;;23.33;;
20846;SDS011;10584;50.854;12.902;2023-04-15T23:20:41;50.87;;;23.47;;
20846;SDS011;10584;50.854;12.902;2023-04-15T23:26:03;50.93;;;22.83;;
20846;SDS011;10584;50.854;12.902;2023-04-15T23:31:24;49.43;;;24.03;;
20846;SDS011;10584;50.854;12.902;2023-04-15T23:36:45;47.90;;;23.27;;
20846;SDS011;10584;50.854;12.902;2023-04-15T23:42:07;49.00;;;23.00;;
20846;SDS011;10584;50.854;12.902;2023-04-15T23:47:29;54.07;;;24.73;;
20846;SDS011;10584;50.854;12.902;2023-04-15T23:52:50;49.23;;;22.67;;
20846;SDS011;10584;50.854;12.902;2023-04-15T23:58:12;48.40;;;22.27;;
